Terminal Aerodrome Forecast
Issued by NWS

Home | Current Version | Previous Version | Text Only | Print | Product List | Glossary On
Versions: 1 2 3 4 5 6 7 8 9 10 11 12 13 14
144
FTUS45 KFGZ 230110 AAA
TAFSEZ
TAF AMD
KSEZ 230110Z 2301/2324 35010KT P6SM FEW110 BKN250
     FM230400 05015G25KT P6SM FEW250
     FM231600 05010KT P6SM FEW150=

USA.gov is the U.S. government's official web portal to all federal, state and local government web resources and services.